sensor_id;sensor_type;location;lat;lon;timestamp;temperature;humidity
24744;DHT22;12844;52.110;5.548;2023-05-29T00:00:40;22.00;54.20
24744;DHT22;12844;52.110;5.548;2023-05-29T00:03:06;21.90;54.10
24744;DHT22;12844;52.110;5.548;2023-05-29T00:05:31;22.00;54.20
24744;DHT22;12844;52.110;5.548;2023-05-29T00:07:57;21.90;54.10
24744;DHT22;12844;52.110;5.548;2023-05-29T00:10:22;21.90;54.10
24744;DHT22;12844;52.110;5.548;2023-05-29T00:12:48;21.90;54.10
24744;DHT22;12844;52.110;5.548;2023-05-29T00:15:13;21.90;54.10
24744;DHT22;12844;52.110;5.548;2023-05-29T01:27:34;21.90;53.90
24744;DHT22;12844;52.110;5.548;2023-05-29T01:30:02;21.90;53.90
24744;DHT22;12844;52.110;5.548;2023-05-29T01:32:28;21.90;53.80
24744;DHT22;12844;52.110;5.548;2023-05-29T01:34:55;21.90;53.80
24744;DHT22;12844;52.110;5.548;2023-05-29T01:37:20;21.90;53.80
24744;DHT22;12844;52.110;5.548;2023-05-29T01:39:46;21.90;53.90
24744;DHT22;12844;52.110;5.548;2023-05-29T01:42:12;21.90;53.90
24744;DHT22;12844;52.110;5.548;2023-05-29T01:44:38;21.90;53.80
24744;DHT22;12844;52.110;5.548;2023-05-29T01:47:04;21.90;53.80
24744;DHT22;12844;52.110;5.548;2023-05-29T01:49:31;21.90;53.80
24744;DHT22;12844;52.110;5.548;2023-05-29T01:51:57;21.90;53.80
24744;DHT22;12844;52.110;5.548;2023-05-29T01:54:23;21.80;53.80
24744;DHT22;12844;52.110;5.548;2023-05-29T01:56:49;21.90;53.80
24744;DHT22;12844;52.110;5.548;2023-05-29T01:59:15;21.80;53.80
24744;DHT22;12844;52.110;5.548;2023-05-29T02:01:41;21.90;53.80
24744;DHT22;12844;52.110;5.548;2023-05-29T02:04:07;21.80;53.80
24744;DHT22;12844;52.110;5.548;2023-05-29T02:06:33;21.80;53.80
24744;DHT22;12844;52.110;5.548;2023-05-29T02:08:59;21.80;53.80
24744;DHT22;12844;52.110;5.548;2023-05-29T02:11:25;21.80;53.80
24744;DHT22;12844;52.110;5.548;2023-05-29T02:13:51;21.80;53.80
24744;DHT22;12844;52.110;5.548;2023-05-29T02:16:17;21.80;53.80
24744;DHT22;12844;52.110;5.548;2023-05-29T02:18:45;21.80;53.80
24744;DHT22;12844;52.110;5.548;2023-05-29T02:21:11;21.80;53.80
24744;DHT22;12844;52.110;5.548;2023-05-29T02:23:37;21.80;53.80
24744;DHT22;12844;52.110;5.548;2023-05-29T02:26:02;21.80;53.80
24744;DHT22;12844;52.110;5.548;2023-05-29T02:28:28;21.80;53.80
24744;DHT22;12844;52.110;5.548;2023-05-29T02:30:53;21.80;53.70
24744;DHT22;12844;52.110;5.548;2023-05-29T02:33:19;21.80;53.80
24744;DHT22;12844;52.110;5.548;2023-05-29T02:35:45;21.80;53.80
24744;DHT22;12844;52.110;5.548;2023-05-29T02:38:10;21.80;53.80
24744;DHT22;12844;52.110;5.548;2023-05-29T02:40:36;21.80;53.80
24744;DHT22;12844;52.110;5.548;2023-05-29T02:43:01;21.80;53.80
24744;DHT22;12844;52.110;5.548;2023-05-29T02:45:27;21.70;53.80
24744;DHT22;12844;52.110;5.548;2023-05-29T02:47:52;21.80;53.80
24744;DHT22;12844;52.110;5.548;2023-05-29T02:50:18;21.70;53.80
24744;DHT22;12844;52.110;5.548;2023-05-29T02:52:43;21.70;53.70
24744;DHT22;12844;52.110;5.548;2023-05-29T02:55:09;21.70;53.70
24744;DHT22;12844;52.110;5.548;2023-05-29T02:57:34;21.70;53.80
24744;DHT22;12844;52.110;5.548;2023-05-29T03:00:00;21.70;53.80
24744;DHT22;12844;52.110;5.548;2023-05-29T03:02:26;21.70;53.80
24744;DHT22;12844;52.110;5.548;2023-05-29T03:04:52;21.70;53.70
24744;DHT22;12844;52.110;5.548;2023-05-29T03:07:19;21.70;53.80
24744;DHT22;12844;52.110;5.548;2023-05-29T03:09:45;21.70;53.80
24744;DHT22;12844;52.110;5.548;2023-05-29T03:12:10;21.70;53.80
24744;DHT22;12844;52.110;5.548;2023-05-29T03:14:36;21.70;53.80
24744;DHT22;12844;52.110;5.548;2023-05-29T03:17:05;21.70;53.70
24744;DHT22;12844;52.110;5.548;2023-05-29T03:19:30;21.70;53.80
24744;DHT22;12844;52.110;5.548;2023-05-29T03:21:56;21.70;53.70
24744;DHT22;12844;52.110;5.548;2023-05-29T03:24:21;21.70;53.70
24744;DHT22;12844;52.110;5.548;2023-05-29T03:26:49;21.70;53.70
24744;DHT22;12844;52.110;5.548;2023-05-29T03:29:15;21.70;53.80
24744;DHT22;12844;52.110;5.548;2023-05-29T03:31:41;21.60;53.70
24744;DHT22;12844;52.110;5.548;2023-05-29T03:34:07;21.60;53.70
24744;DHT22;12844;52.110;5.548;2023-05-29T03:36:33;21.60;53.70
24744;DHT22;12844;52.110;5.548;2023-05-29T03:38:58;21.70;53.70
24744;DHT22;12844;52.110;5.548;2023-05-29T03:41:24;21.60;53.70
24744;DHT22;12844;52.110;5.548;2023-05-29T03:43:50;21.60;53.70
24744;DHT22;12844;52.110;5.548;2023-05-29T03:46:16;21.60;53.70
24744;DHT22;12844;52.110;5.548;2023-05-29T03:48:42;21.60;53.70
24744;DHT22;12844;52.110;5.548;2023-05-29T03:51:07;21.60;53.70
24744;DHT22;12844;52.110;5.548;2023-05-29T03:53:33;21.60;53.70
24744;DHT22;12844;52.110;5.548;2023-05-29T03:55:58;21.60;53.60
24744;DHT22;12844;52.110;5.548;2023-05-29T03:58:24;21.60;53.60
24744;DHT22;12844;52.110;5.548;2023-05-29T04:00:49;21.60;53.60
24744;DHT22;12844;52.110;5.548;2023-05-29T04:03:15;21.60;53.60
24744;DHT22;12844;52.110;5.548;2023-05-29T04:05:40;21.60;53.60
24744;DHT22;12844;52.110;5.548;2023-05-29T04:08:06;21.60;53.60
24744;DHT22;12844;52.110;5.548;2023-05-29T04:10:34;21.60;53.60
24744;DHT22;12844;52.110;5.548;2023-05-29T04:13:02;21.60;53.60
24744;DHT22;12844;52.110;5.548;2023-05-29T04:15:28;21.60;53.50
24744;DHT22;12844;52.110;5.548;2023-05-29T04:17:54;21.60;53.60
24744;DHT22;12844;52.110;5.548;2023-05-29T04:20:20;21.60;53.60
24744;DHT22;12844;52.110;5.548;2023-05-29T04:22:46;21.60;53.60
24744;DHT22;12844;52.110;5.548;2023-05-29T04:25:11;21.60;53.60
24744;DHT22;12844;52.110;5.548;2023-05-29T04:27:37;21.60;53.60
24744;DHT22;12844;52.110;5.548;2023-05-29T04:30:05;21.60;53.60
24744;DHT22;12844;52.110;5.548;2023-05-29T04:32:30;21.60;53.60
24744;DHT22;12844;52.110;5.548;2023-05-29T04:34:56;21.50;53.50
24744;DHT22;12844;52.110;5.548;2023-05-29T04:37:21;21.50;53.50
24744;DHT22;12844;52.110;5.548;2023-05-29T04:39:54;21.50;53.50
24744;DHT22;12844;52.110;5.548;2023-05-29T04:42:20;21.50;53.50
24744;DHT22;12844;52.110;5.548;2023-05-29T04:44:46;21.50;53.70
24744;DHT22;12844;52.110;5.548;2023-05-29T04:47:12;21.50;53.60
24744;DHT22;12844;52.110;5.548;2023-05-29T04:49:39;21.50;53.60
24744;DHT22;12844;52.110;5.548;2023-05-29T04:52:04;21.50;53.60
24744;DHT22;12844;52.110;5.548;2023-05-29T04:54:30;21.50;53.60
24744;DHT22;12844;52.110;5.548;2023-05-29T04:56:55;21.50;53.60
24744;DHT22;12844;52.110;5.548;2023-05-29T04:59:21;21.50;53.60
24744;DHT22;12844;52.110;5.548;2023-05-29T05:01:46;21.50;53.60
24744;DHT22;12844;52.110;5.548;2023-05-29T05:04:13;21.50;53.50
24744;DHT22;12844;52.110;5.548;2023-05-29T05:06:39;21.50;53.50
24744;DHT22;12844;52.110;5.548;2023-05-29T05:09:04;21.50;53.50
24744;DHT22;12844;52.110;5.548;2023-05-29T05:11:30;21.50;53.50
24744;DHT22;12844;52.110;5.548;2023-05-29T05:13:55;21.50;53.50
24744;DHT22;12844;52.110;5.548;2023-05-29T05:16:21;21.50;53.50
24744;DHT22;12844;52.110;5.548;2023-05-29T05:18:46;21.50;53.40
24744;DHT22;12844;52.110;5.548;2023-05-29T05:21:12;21.50;53.50
24744;DHT22;12844;52.110;5.548;2023-05-29T05:23:37;21.50;53.50
24744;DHT22;12844;52.110;5.548;2023-05-29T05:26:03;21.50;53.50
24744;DHT22;12844;52.110;5.548;2023-05-29T05:28:28;21.50;53.50
24744;DHT22;12844;52.110;5.548;2023-05-29T05:30:54;21.50;53.40
24744;DHT22;12844;52.110;5.548;2023-05-29T05:33:19;21.50;53.40
24744;DHT22;12844;52.110;5.548;2023-05-29T05:35:45;21.50;53.40
24744;DHT22;12844;52.110;5.548;2023-05-29T05:38:11;21.50;53.40
24744;DHT22;12844;52.110;5.548;2023-05-29T05:40:36;21.50;53.40
24744;DHT22;12844;52.110;5.548;2023-05-29T05:43:02;21.60;53.40
24744;DHT22;12844;52.110;5.548;2023-05-29T05:45:27;21.50;53.30
24744;DHT22;12844;52.110;5.548;2023-05-29T05:47:53;21.50;53.30
24744;DHT22;12844;52.110;5.548;2023-05-29T05:50:18;21.50;53.30
24744;DHT22;12844;52.110;5.548;2023-05-29T05:52:44;21.60;53.30
24744;DHT22;12844;52.110;5.548;2023-05-29T05:55:10;21.50;53.30
24744;DHT22;12844;52.110;5.548;2023-05-29T05:57:36;21.50;53.30
24744;DHT22;12844;52.110;5.548;2023-05-29T06:00:03;21.50;53.30
24744;DHT22;12844;52.110;5.548;2023-05-29T06:02:41;21.50;53.30
24744;DHT22;12844;52.110;5.548;2023-05-29T06:05:08;21.50;53.30
24744;DHT22;12844;52.110;5.548;2023-05-29T06:07:34;21.50;53.30
24744;DHT22;12844;52.110;5.548;2023-05-29T06:10:01;21.50;53.30
24744;DHT22;12844;52.110;5.548;2023-05-29T06:12:26;21.50;53.30
24744;DHT22;12844;52.110;5.548;2023-05-29T06:14:52;21.50;53.30
24744;DHT22;12844;52.110;5.548;2023-05-29T06:17:18;21.50;53.30
24744;DHT22;12844;52.110;5.548;2023-05-29T06:19:43;21.50;53.30
24744;DHT22;12844;52.110;5.548;2023-05-29T06:22:09;21.50;53.30
24744;DHT22;12844;52.110;5.548;2023-05-29T06:24:34;21.50;53.20
24744;DHT22;12844;52.110;5.548;2023-05-29T06:27:00;21.50;53.20
24744;DHT22;12844;52.110;5.548;2023-05-29T06:29:26;21.50;53.20
24744;DHT22;12844;52.110;5.548;2023-05-29T06:31:52;21.60;53.30
24744;DHT22;12844;52.110;5.548;2023-05-29T06:34:17;21.60;53.30
24744;DHT22;12844;52.110;5.548;2023-05-29T06:36:43;21.60;53.20
24744;DHT22;12844;52.110;5.548;2023-05-29T06:39:09;21.60;53.20
24744;DHT22;12844;52.110;5.548;2023-05-29T06:41:35;21.60;53.20
24744;DHT22;12844;52.110;5.548;2023-05-29T06:44:01;21.60;53.30
24744;DHT22;12844;52.110;5.548;2023-05-29T06:46:26;21.60;53.20
24744;DHT22;12844;52.110;5.548;2023-05-29T06:48:52;21.60;53.20
24744;DHT22;12844;52.110;5.548;2023-05-29T06:51:17;21.60;53.20
24744;DHT22;12844;52.110;5.548;2023-05-29T06:53:43;21.60;53.30
24744;DHT22;12844;52.110;5.548;2023-05-29T06:56:09;21.60;53.30
24744;DHT22;12844;52.110;5.548;2023-05-29T06:58:35;21.60;53.30
24744;DHT22;12844;52.110;5.548;2023-05-29T07:01:00;21.60;53.20
24744;DHT22;12844;52.110;5.548;2023-05-29T07:03:26;21.60;53.30
24744;DHT22;12844;52.110;5.548;2023-05-29T07:05:52;21.60;53.20
24744;DHT22;12844;52.110;5.548;2023-05-29T07:08:18;21.60;53.30
24744;DHT22;12844;52.110;5.548;2023-05-29T07:10:44;21.60;53.20
24744;DHT22;12844;52.110;5.548;2023-05-29T07:13:13;21.60;53.20
24744;DHT22;12844;52.110;5.548;2023-05-29T07:15:38;21.60;53.20
24744;DHT22;12844;52.110;5.548;2023-05-29T07:18:04;21.60;53.20
24744;DHT22;12844;52.110;5.548;2023-05-29T07:20:30;21.60;53.30
24744;DHT22;12844;52.110;5.548;2023-05-29T07:22:55;21.60;53.20
24744;DHT22;12844;52.110;5.548;2023-05-29T07:25:21;21.60;53.20
24744;DHT22;12844;52.110;5.548;2023-05-29T07:27:46;21.60;53.30
24744;DHT22;12844;52.110;5.548;2023-05-29T07:30:12;21.60;53.30
24744;DHT22;12844;52.110;5.548;2023-05-29T07:32:38;21.60;53.20
24744;DHT22;12844;52.110;5.548;2023-05-29T07:35:04;21.60;53.20
24744;DHT22;12844;52.110;5.548;2023-05-29T07:37:29;21.60;53.20
24744;DHT22;12844;52.110;5.548;2023-05-29T07:39:55;21.60;53.20
24744;DHT22;12844;52.110;5.548;2023-05-29T07:42:21;21.60;53.20
24744;DHT22;12844;52.110;5.548;2023-05-29T07:44:46;21.60;53.10
24744;DHT22;12844;52.110;5.548;2023-05-29T07:47:13;21.60;53.10
24744;DHT22;12844;52.110;5.548;2023-05-29T11:01:08;22.30;52.10
24744;DHT22;12844;52.110;5.548;2023-05-29T11:03:34;22.30;52.10
24744;DHT22;12844;52.110;5.548;2023-05-29T11:08:43;22.30;52.00
24744;DHT22;12844;52.110;5.548;2023-05-29T11:11:12;22.30;52.00
24744;DHT22;12844;52.110;5.548;2023-05-29T11:13:39;22.30;52.00
24744;DHT22;12844;52.110;5.548;2023-05-29T11:18:51;22.40;52.00
24744;DHT22;12844;52.110;5.548;2023-05-29T11:44:35;22.40;52.00
24744;DHT22;12844;52.110;5.548;2023-05-29T11:47:05;22.30;51.90
24744;DHT22;12844;52.110;5.548;2023-05-29T11:49:36;22.40;52.00
24744;DHT22;12844;52.110;5.548;2023-05-29T11:52:06;22.40;52.10
24744;DHT22;12844;52.110;5.548;2023-05-29T11:54:33;22.40;52.10
24744;DHT22;12844;52.110;5.548;2023-05-29T11:57:00;22.40;52.00
24744;DHT22;12844;52.110;5.548;2023-05-29T12:20:11;22.40;52.10
24744;DHT22;12844;52.110;5.548;2023-05-29T12:22:38;22.40;52.10
24744;DHT22;12844;52.110;5.548;2023-05-29T12:25:15;22.40;52.20
24744;DHT22;12844;52.110;5.548;2023-05-29T12:27:45;22.40;52.10
24744;DHT22;12844;52.110;5.548;2023-05-29T12:32:44;22.30;52.20
24744;DHT22;12844;52.110;5.548;2023-05-29T12:50:38;22.30;52.30
24744;DHT22;12844;52.110;5.548;2023-05-29T12:53:04;22.30;52.20
24744;DHT22;12844;52.110;5.548;2023-05-29T12:55:35;22.20;52.20
24744;DHT22;12844;52.110;5.548;2023-05-29T12:58:16;22.20;52.40
24744;DHT22;12844;52.110;5.548;2023-05-29T13:00:44;22.20;52.40
24744;DHT22;12844;52.110;5.548;2023-05-29T13:03:11;22.20;52.50
24744;DHT22;12844;52.110;5.548;2023-05-29T13:05:37;22.20;52.50
24744;DHT22;12844;52.110;5.548;2023-05-29T13:08:03;22.20;52.50
24744;DHT22;12844;52.110;5.548;2023-05-29T13:10:30;22.20;52.50
24744;DHT22;12844;52.110;5.548;2023-05-29T13:12:56;22.20;52.50
24744;DHT22;12844;52.110;5.548;2023-05-29T13:15:25;22.20;52.50
24744;DHT22;12844;52.110;5.548;2023-05-29T13:17:52;22.20;52.50
24744;DHT22;12844;52.110;5.548;2023-05-29T13:20:19;22.20;52.50
24744;DHT22;12844;52.110;5.548;2023-05-29T13:22:46;22.20;52.50
24744;DHT22;12844;52.110;5.548;2023-05-29T13:25:13;22.20;52.60
24744;DHT22;12844;52.110;5.548;2023-05-29T13:27:42;22.20;52.60
24744;DHT22;12844;52.110;5.548;2023-05-29T13:30:09;22.20;52.60
24744;DHT22;12844;52.110;5.548;2023-05-29T13:32:35;22.20;52.60
24744;DHT22;12844;52.110;5.548;2023-05-29T13:35:01;22.20;52.60
24744;DHT22;12844;52.110;5.548;2023-05-29T13:37:27;22.20;52.70
24744;DHT22;12844;52.110;5.548;2023-05-29T13:39:53;22.20;52.70
24744;DHT22;12844;52.110;5.548;2023-05-29T13:42:20;22.20;52.60
24744;DHT22;12844;52.110;5.548;2023-05-29T13:44:46;22.20;52.90
24744;DHT22;12844;52.110;5.548;2023-05-29T13:47:12;22.20;52.70
24744;DHT22;12844;52.110;5.548;2023-05-29T13:49:38;22.20;52.70
24744;DHT22;12844;52.110;5.548;2023-05-29T13:52:03;22.20;52.70
24744;DHT22;12844;52.110;5.548;2023-05-29T13:54:29;22.20;52.80
24744;DHT22;12844;52.110;5.548;2023-05-29T13:56:57;22.20;52.70
24744;DHT22;12844;52.110;5.548;2023-05-29T13:59:24;22.20;52.70
24744;DHT22;12844;52.110;5.548;2023-05-29T14:01:49;22.20;52.70
24744;DHT22;12844;52.110;5.548;2023-05-29T14:04:15;22.20;52.70
24744;DHT22;12844;52.110;5.548;2023-05-29T14:06:40;22.20;52.70
24744;DHT22;12844;52.110;5.548;2023-05-29T14:09:06;22.20;52.70
24744;DHT22;12844;52.110;5.548;2023-05-29T14:11:35;22.20;52.70
24744;DHT22;12844;52.110;5.548;2023-05-29T14:14:03;22.20;52.60
24744;DHT22;12844;52.110;5.548;2023-05-29T14:16:28;22.20;52.70
24744;DHT22;12844;52.110;5.548;2023-05-29T14:18:54;22.20;52.70
24744;DHT22;12844;52.110;5.548;2023-05-29T14:21:19;22.30;52.70
24744;DHT22;12844;52.110;5.548;2023-05-29T14:23:46;22.30;52.70
24744;DHT22;12844;52.110;5.548;2023-05-29T14:26:11;22.30;52.60
24744;DHT22;12844;52.110;5.548;2023-05-29T14:28:37;22.30;52.60
24744;DHT22;12844;52.110;5.548;2023-05-29T14:31:04;22.40;52.60
24744;DHT22;12844;52.110;5.548;2023-05-29T14:33:30;22.40;52.50
24744;DHT22;12844;52.110;5.548;2023-05-29T14:35:56;22.40;52.60
24744;DHT22;12844;52.110;5.548;2023-05-29T14:38:22;22.40;52.70
24744;DHT22;12844;52.110;5.548;2023-05-29T14:40:48;22.30;52.70
24744;DHT22;12844;52.110;5.548;2023-05-29T14:43:13;22.40;52.70
24744;DHT22;12844;52.110;5.548;2023-05-29T14:45:39;22.40;52.70
24744;DHT22;12844;52.110;5.548;2023-05-29T14:48:04;22.40;52.90
24744;DHT22;12844;52.110;5.548;2023-05-29T14:50:30;22.40;52.80
24744;DHT22;12844;52.110;5.548;2023-05-29T14:52:55;22.50;52.90
24744;DHT22;12844;52.110;5.548;2023-05-29T14:55:21;22.50;52.80
24744;DHT22;12844;52.110;5.548;2023-05-29T14:57:46;22.50;52.80
24744;DHT22;12844;52.110;5.548;2023-05-29T15:00:12;22.40;52.80
24744;DHT22;12844;52.110;5.548;2023-05-29T15:02:38;22.50;52.90
24744;DHT22;12844;52.110;5.548;2023-05-29T15:05:05;22.50;52.80
24744;DHT22;12844;52.110;5.548;2023-05-29T15:07:32;22.50;52.80
24744;DHT22;12844;52.110;5.548;2023-05-29T15:09:59;22.50;52.80
24744;DHT22;12844;52.110;5.548;2023-05-29T15:12:25;22.50;52.80
24744;DHT22;12844;52.110;5.548;2023-05-29T15:14:51;22.50;52.80
24744;DHT22;12844;52.110;5.548;2023-05-29T15:17:16;22.50;52.80
24744;DHT22;12844;52.110;5.548;2023-05-29T15:19:43;22.60;52.80
24744;DHT22;12844;52.110;5.548;2023-05-29T15:22:08;22.60;52.70
24744;DHT22;12844;52.110;5.548;2023-05-29T15:24:34;22.70;52.70
24744;DHT22;12844;52.110;5.548;2023-05-29T15:27:00;22.60;52.70
24744;DHT22;12844;52.110;5.548;2023-05-29T15:29:29;22.70;52.80
24744;DHT22;12844;52.110;5.548;2023-05-29T15:31:55;22.70;52.80
24744;DHT22;12844;52.110;5.548;2023-05-29T15:34:21;22.70;52.70
24744;DHT22;12844;52.110;5.548;2023-05-29T15:36:46;22.70;52.70
24744;DHT22;12844;52.110;5.548;2023-05-29T15:39:12;22.70;52.80
24744;DHT22;12844;52.110;5.548;2023-05-29T15:41:37;22.70;52.80
24744;DHT22;12844;52.110;5.548;2023-05-29T15:44:03;22.70;52.90
24744;DHT22;12844;52.110;5.548;2023-05-29T15:46:29;22.70;53.00
24744;DHT22;12844;52.110;5.548;2023-05-29T15:48:55;22.70;52.80
24744;DHT22;12844;52.110;5.548;2023-05-29T15:51:20;22.70;52.90
24744;DHT22;12844;52.110;5.548;2023-05-29T15:53:46;22.70;52.80
24744;DHT22;12844;52.110;5.548;2023-05-29T15:56:11;22.70;52.70
24744;DHT22;12844;52.110;5.548;2023-05-29T15:58:37;22.80;52.80
24744;DHT22;12844;52.110;5.548;2023-05-29T16:01:02;22.80;52.80
24744;DHT22;12844;52.110;5.548;2023-05-29T16:03:28;22.70;52.70
24744;DHT22;12844;52.110;5.548;2023-05-29T16:05:54;22.70;52.80
24744;DHT22;12844;52.110;5.548;2023-05-29T16:08:20;22.70;53.10
24744;DHT22;12844;52.110;5.548;2023-05-29T16:10:45;22.70;53.10
24744;DHT22;12844;52.110;5.548;2023-05-29T16:13:11;22.70;53.00
24744;DHT22;12844;52.110;5.548;2023-05-29T16:15:37;22.80;53.00
24744;DHT22;12844;52.110;5.548;2023-05-29T16:18:03;22.70;53.00
24744;DHT22;12844;52.110;5.548;2023-05-29T16:20:29;22.80;53.10
24744;DHT22;12844;52.110;5.548;2023-05-29T16:22:56;22.80;53.10
24744;DHT22;12844;52.110;5.548;2023-05-29T16:25:22;22.80;53.10
24744;DHT22;12844;52.110;5.548;2023-05-29T16:27:47;22.80;53.10
24744;DHT22;12844;52.110;5.548;2023-05-29T16:30:14;22.70;53.00
24744;DHT22;12844;52.110;5.548;2023-05-29T16:32:39;22.80;53.20
24744;DHT22;12844;52.110;5.548;2023-05-29T16:35:05;22.80;53.10
24744;DHT22;12844;52.110;5.548;2023-05-29T16:37:32;22.80;53.10
24744;DHT22;12844;52.110;5.548;2023-05-29T16:39:57;22.80;53.10
24744;DHT22;12844;52.110;5.548;2023-05-29T16:42:23;22.80;53.10
24744;DHT22;12844;52.110;5.548;2023-05-29T16:44:49;22.80;53.30
24744;DHT22;12844;52.110;5.548;2023-05-29T16:47:14;22.70;53.40
24744;DHT22;12844;52.110;5.548;2023-05-29T16:49:40;22.70;53.60
24744;DHT22;12844;52.110;5.548;2023-05-29T16:52:08;22.70;53.50
24744;DHT22;12844;52.110;5.548;2023-05-29T16:54:33;22.70;53.30
24744;DHT22;12844;52.110;5.548;2023-05-29T16:57:10;22.80;53.30
24744;DHT22;12844;52.110;5.548;2023-05-29T16:59:36;22.80;53.20
24744;DHT22;12844;52.110;5.548;2023-05-29T17:02:01;22.80;53.30
24744;DHT22;12844;52.110;5.548;2023-05-29T17:04:27;22.70;53.30
24744;DHT22;12844;52.110;5.548;2023-05-29T17:06:53;22.70;53.40
24744;DHT22;12844;52.110;5.548;2023-05-29T17:09:18;22.70;53.40
24744;DHT22;12844;52.110;5.548;2023-05-29T17:11:44;22.70;53.40
24744;DHT22;12844;52.110;5.548;2023-05-29T17:14:09;22.70;53.40
24744;DHT22;12844;52.110;5.548;2023-05-29T17:16:35;22.70;53.40
24744;DHT22;12844;52.110;5.548;2023-05-29T17:19:00;22.60;53.40
24744;DHT22;12844;52.110;5.548;2023-05-29T17:21:26;22.60;53.50
24744;DHT22;12844;52.110;5.548;2023-05-29T17:23:51;22.60;53.60
24744;DHT22;12844;52.110;5.548;2023-05-29T17:26:21;22.60;53.60
24744;DHT22;12844;52.110;5.548;2023-05-29T17:28:48;22.60;53.60
24744;DHT22;12844;52.110;5.548;2023-05-29T17:31:17;22.60;53.60
24744;DHT22;12844;52.110;5.548;2023-05-29T17:33:43;22.60;53.60
24744;DHT22;12844;52.110;5.548;2023-05-29T17:36:08;22.60;53.60
24744;DHT22;12844;52.110;5.548;2023-05-29T17:38:34;22.60;53.60
24744;DHT22;12844;52.110;5.548;2023-05-29T17:40:59;22.60;53.70
24744;DHT22;12844;52.110;5.548;2023-05-29T17:43:25;22.60;53.70
24744;DHT22;12844;52.110;5.548;2023-05-29T17:45:51;22.60;53.70
24744;DHT22;12844;52.110;5.548;2023-05-29T17:48:19;22.60;53.70
24744;DHT22;12844;52.110;5.548;2023-05-29T17:50:45;22.50;53.60
24744;DHT22;12844;52.110;5.548;2023-05-29T17:53:11;22.60;53.70
24744;DHT22;12844;52.110;5.548;2023-05-29T17:55:36;22.50;53.60
24744;DHT22;12844;52.110;5.548;2023-05-29T17:58:02;22.50;53.60
24744;DHT22;12844;52.110;5.548;2023-05-29T18:00:28;22.50;53.60
24744;DHT22;12844;52.110;5.548;2023-05-29T18:02:54;22.50;53.70
24744;DHT22;12844;52.110;5.548;2023-05-29T18:05:19;22.50;53.70
24744;DHT22;12844;52.110;5.548;2023-05-29T18:07:45;22.50;53.80
24744;DHT22;12844;52.110;5.548;2023-05-29T18:10:11;22.50;53.70
24744;DHT22;12844;52.110;5.548;2023-05-29T18:12:36;22.50;53.70
24744;DHT22;12844;52.110;5.548;2023-05-29T18:15:02;22.50;53.80
24744;DHT22;12844;52.110;5.548;2023-05-29T18:17:28;22.50;53.90
24744;DHT22;12844;52.110;5.548;2023-05-29T18:19:53;22.60;53.80
24744;DHT22;12844;52.110;5.548;2023-05-29T18:22:19;22.50;53.80
24744;DHT22;12844;52.110;5.548;2023-05-29T18:24:45;22.50;53.80
24744;DHT22;12844;52.110;5.548;2023-05-29T18:27:11;22.60;53.70
24744;DHT22;12844;52.110;5.548;2023-05-29T18:29:36;22.60;53.40
24744;DHT22;12844;52.110;5.548;2023-05-29T18:32:02;22.60;53.10
24744;DHT22;12844;52.110;5.548;2023-05-29T18:34:28;22.50;53.40
24744;DHT22;12844;52.110;5.548;2023-05-29T18:36:54;22.50;53.40
24744;DHT22;12844;52.110;5.548;2023-05-29T18:39:19;22.50;53.50
24744;DHT22;12844;52.110;5.548;2023-05-29T18:41:45;22.50;53.70
24744;DHT22;12844;52.110;5.548;2023-05-29T18:44:11;22.50;53.80
24744;DHT22;12844;52.110;5.548;2023-05-29T18:46:36;22.50;53.90
24744;DHT22;12844;52.110;5.548;2023-05-29T18:49:02;22.50;53.90
24744;DHT22;12844;52.110;5.548;2023-05-29T18:51:28;22.50;54.00
24744;DHT22;12844;52.110;5.548;2023-05-29T18:53:55;22.40;54.00
24744;DHT22;12844;52.110;5.548;2023-05-29T18:56:20;22.50;54.10
24744;DHT22;12844;52.110;5.548;2023-05-29T18:58:46;22.50;53.90
24744;DHT22;12844;52.110;5.548;2023-05-29T19:01:12;22.50;54.00
24744;DHT22;12844;52.110;5.548;2023-05-29T19:03:37;22.50;54.00
24744;DHT22;12844;52.110;5.548;2023-05-29T19:06:03;22.50;53.90
24744;DHT22;12844;52.110;5.548;2023-05-29T19:08:29;22.50;54.00
24744;DHT22;12844;52.110;5.548;2023-05-29T19:10:54;22.50;54.10
24744;DHT22;12844;52.110;5.548;2023-05-29T19:13:20;22.40;54.00
24744;DHT22;12844;52.110;5.548;2023-05-29T19:15:45;22.40;54.00
24744;DHT22;12844;52.110;5.548;2023-05-29T19:18:11;22.40;54.10
24744;DHT22;12844;52.110;5.548;2023-05-29T19:20:37;22.40;54.10
24744;DHT22;12844;52.110;5.548;2023-05-29T19:23:04;22.40;54.10
24744;DHT22;12844;52.110;5.548;2023-05-29T19:25:30;22.40;54.10
24744;DHT22;12844;52.110;5.548;2023-05-29T19:27:56;22.40;54.10
24744;DHT22;12844;52.110;5.548;2023-05-29T19:30:21;22.40;54.10
24744;DHT22;12844;52.110;5.548;2023-05-29T19:32:47;22.40;54.20
24744;DHT22;12844;52.110;5.548;2023-05-29T19:35:12;22.40;54.10
24744;DHT22;12844;52.110;5.548;2023-05-29T19:37:38;22.40;54.20
24744;DHT22;12844;52.110;5.548;2023-05-29T19:40:04;22.40;54.10
24744;DHT22;12844;52.110;5.548;2023-05-29T19:42:31;22.40;54.10
24744;DHT22;12844;52.110;5.548;2023-05-29T19:44:56;22.40;53.80
24744;DHT22;12844;52.110;5.548;2023-05-29T19:47:24;22.40;53.80
24744;DHT22;12844;52.110;5.548;2023-05-29T19:49:50;22.40;53.90
24744;DHT22;12844;52.110;5.548;2023-05-29T19:52:16;22.40;54.00
24744;DHT22;12844;52.110;5.548;2023-05-29T19:54:43;22.40;54.10
24744;DHT22;12844;52.110;5.548;2023-05-29T19:57:09;22.40;54.10
24744;DHT22;12844;52.110;5.548;2023-05-29T19:59:36;22.40;54.20
24744;DHT22;12844;52.110;5.548;2023-05-29T20:02:02;22.40;54.30
24744;DHT22;12844;52.110;5.548;2023-05-29T20:04:31;22.40;54.40
24744;DHT22;12844;52.110;5.548;2023-05-29T20:06:59;22.40;54.50
24744;DHT22;12844;52.110;5.548;2023-05-29T20:09:24;22.30;54.50
24744;DHT22;12844;52.110;5.548;2023-05-29T20:11:50;22.30;54.60
24744;DHT22;12844;52.110;5.548;2023-05-29T20:14:16;22.40;54.60
24744;DHT22;12844;52.110;5.548;2023-05-29T20:16:42;22.40;54.50
24744;DHT22;12844;52.110;5.548;2023-05-29T20:19:07;22.40;54.40
24744;DHT22;12844;52.110;5.548;2023-05-29T20:21:33;22.40;54.40
24744;DHT22;12844;52.110;5.548;2023-05-29T20:23:58;22.40;54.30
24744;DHT22;12844;52.110;5.548;2023-05-29T20:26:24;22.40;54.30
24744;DHT22;12844;52.110;5.548;2023-05-29T20:28:51;22.40;54.20
24744;DHT22;12844;52.110;5.548;2023-05-29T20:31:17;22.40;54.20
24744;DHT22;12844;52.110;5.548;2023-05-29T20:33:43;22.40;54.20
24744;DHT22;12844;52.110;5.548;2023-05-29T20:36:09;22.40;54.10
24744;DHT22;12844;52.110;5.548;2023-05-29T20:38:35;22.40;54.10
24744;DHT22;12844;52.110;5.548;2023-05-29T20:41:04;22.40;54.10
24744;DHT22;12844;52.110;5.548;2023-05-29T20:43:30;22.40;54.20
24744;DHT22;12844;52.110;5.548;2023-05-29T20:46:01;22.40;54.10
24744;DHT22;12844;52.110;5.548;2023-05-29T20:48:28;22.40;54.10
24744;DHT22;12844;52.110;5.548;2023-05-29T20:50:53;22.40;54.10